sensor_id;sensor_type;location;lat;lon;timestamp;P1;durP1;ratioP1;P2;durP2;ratioP2
2021;SDS011;1015;49.756;6.994;2023-11-18T00:01:11;12.23;;;8.80;;
2021;SDS011;1015;49.756;6.994;2023-11-18T00:03:38;11.80;;;8.00;;
2021;SDS011;1015;49.756;6.994;2023-11-18T00:06:05;12.63;;;8.80;;
2021;SDS011;1015;49.756;6.994;2023-11-18T00:08:33;15.33;;;8.60;;
2021;SDS011;1015;49.756;6.994;2023-11-18T00:11:01;11.40;;;7.93;;
2021;SDS011;1015;49.756;6.994;2023-11-18T00:13:28;14.70;;;9.13;;
2021;SDS011;1015;49.756;6.994;2023-11-18T00:15:55;13.57;;;8.30;;
2021;SDS011;1015;49.756;6.994;2023-11-18T00:18:24;15.63;;;9.27;;
2021;SDS011;1015;49.756;6.994;2023-11-18T00:20:51;16.90;;;9.27;;
2021;SDS011;1015;49.756;6.994;2023-11-18T00:23:18;14.57;;;9.00;;
2021;SDS011;1015;49.756;6.994;2023-11-18T00:25:45;13.90;;;9.10;;
2021;SDS011;1015;49.756;6.994;2023-11-18T00:28:12;13.00;;;8.57;;
2021;SDS011;1015;49.756;6.994;2023-11-18T00:30:40;15.97;;;9.13;;
2021;SDS011;1015;49.756;6.994;2023-11-18T00:33:07;14.47;;;10.03;;
2021;SDS011;1015;49.756;6.994;2023-11-18T00:35:35;17.92;;;10.25;;
2021;SDS011;1015;49.756;6.994;2023-11-18T00:38:02;14.80;;;9.03;;
2021;SDS011;1015;49.756;6.994;2023-11-18T00:40:29;16.97;;;10.80;;
2021;SDS011;1015;49.756;6.994;2023-11-18T00:42:57;13.77;;;9.50;;
2021;SDS011;1015;49.756;6.994;2023-11-18T00:45:24;12.17;;;8.93;;
2021;SDS011;1015;49.756;6.994;2023-11-18T00:47:52;16.73;;;10.60;;
2021;SDS011;1015;49.756;6.994;2023-11-18T00:50:19;15.97;;;9.87;;
2021;SDS011;1015;49.756;6.994;2023-11-18T00:52:48;16.23;;;10.10;;
2021;SDS011;1015;49.756;6.994;2023-11-18T00:55:15;16.83;;;10.23;;
2021;SDS011;1015;49.756;6.994;2023-11-18T00:57:43;13.97;;;9.57;;
2021;SDS011;1015;49.756;6.994;2023-11-18T01:00:11;13.27;;;9.20;;
2021;SDS011;1015;49.756;6.994;2023-11-18T01:02:41;14.37;;;9.60;;
2021;SDS011;1015;49.756;6.994;2023-11-18T01:05:08;14.93;;;9.40;;
2021;SDS011;1015;49.756;6.994;2023-11-18T01:07:36;17.40;;;9.90;;
2021;SDS011;1015;49.756;6.994;2023-11-18T01:10:04;14.00;;;9.03;;
2021;SDS011;1015;49.756;6.994;2023-11-18T01:12:32;16.70;;;11.07;;
2021;SDS011;1015;49.756;6.994;2023-11-18T01:14:59;14.90;;;9.47;;
2021;SDS011;1015;49.756;6.994;2023-11-18T01:17:26;14.83;;;9.53;;
2021;SDS011;1015;49.756;6.994;2023-11-18T01:19:54;17.40;;;10.03;;
2021;SDS011;1015;49.756;6.994;2023-11-18T01:22:21;16.87;;;9.80;;
2021;SDS011;1015;49.756;6.994;2023-11-18T01:24:49;15.33;;;10.60;;
2021;SDS011;1015;49.756;6.994;2023-11-18T01:27:18;19.58;;;11.10;;
2021;SDS011;1015;49.756;6.994;2023-11-18T01:29:46;14.33;;;9.60;;
2021;SDS011;1015;49.756;6.994;2023-11-18T01:32:13;15.13;;;10.07;;
2021;SDS011;1015;49.756;6.994;2023-11-18T01:34:40;14.17;;;9.10;;
2021;SDS011;1015;49.756;6.994;2023-11-18T01:37:08;13.00;;;9.43;;
2021;SDS011;1015;49.756;6.994;2023-11-18T01:39:36;13.30;;;9.50;;
2021;SDS011;1015;49.756;6.994;2023-11-18T01:42:03;12.13;;;8.63;;
2021;SDS011;1015;49.756;6.994;2023-11-18T01:44:32;13.97;;;9.40;;
2021;SDS011;1015;49.756;6.994;2023-11-18T01:47:00;14.53;;;9.20;;
2021;SDS011;1015;49.756;6.994;2023-11-18T01:49:30;13.93;;;9.60;;
2021;SDS011;1015;49.756;6.994;2023-11-18T01:51:58;12.83;;;8.73;;
2021;SDS011;1015;49.756;6.994;2023-11-18T01:54:26;13.53;;;8.10;;
2021;SDS011;1015;49.756;6.994;2023-11-18T01:56:53;13.07;;;9.27;;
2021;SDS011;1015;49.756;6.994;2023-11-18T01:59:21;11.57;;;8.73;;
2021;SDS011;1015;49.756;6.994;2023-11-18T02:01:50;13.60;;;8.77;;
2021;SDS011;1015;49.756;6.994;2023-11-18T02:04:18;13.93;;;8.47;;
2021;SDS011;1015;49.756;6.994;2023-11-18T02:06:46;12.30;;;8.37;;
2021;SDS011;1015;49.756;6.994;2023-11-18T02:09:14;12.27;;;8.10;;
2021;SDS011;1015;49.756;6.994;2023-11-18T02:11:43;15.53;;;9.13;;
2021;SDS011;1015;49.756;6.994;2023-11-18T02:14:13;12.93;;;8.40;;
2021;SDS011;1015;49.756;6.994;2023-11-18T02:16:42;13.70;;;8.83;;
2021;SDS011;1015;49.756;6.994;2023-11-18T02:19:21;12.03;;;8.67;;
2021;SDS011;1015;49.756;6.994;2023-11-18T02:21:48;13.20;;;8.53;;
2021;SDS011;1015;49.756;6.994;2023-11-18T02:24:25;13.90;;;9.23;;
2021;SDS011;1015;49.756;6.994;2023-11-18T02:26:56;11.93;;;8.27;;
2021;SDS011;1015;49.756;6.994;2023-11-18T02:29:23;15.87;;;8.43;;
2021;SDS011;1015;49.756;6.994;2023-11-18T02:31:52;11.43;;;7.57;;
2021;SDS011;1015;49.756;6.994;2023-11-18T02:34:22;12.47;;;7.53;;
2021;SDS011;1015;49.756;6.994;2023-11-18T02:36:50;14.90;;;8.00;;
2021;SDS011;1015;49.756;6.994;2023-11-18T02:39:20;15.23;;;9.07;;
2021;SDS011;1015;49.756;6.994;2023-11-18T02:41:48;11.53;;;7.47;;
2021;SDS011;1015;49.756;6.994;2023-11-18T02:44:18;17.00;;;8.13;;
2021;SDS011;1015;49.756;6.994;2023-11-18T02:46:48;14.87;;;8.00;;
2021;SDS011;1015;49.756;6.994;2023-11-18T02:49:15;12.60;;;7.20;;
2021;SDS011;1015;49.756;6.994;2023-11-18T02:51:42;17.50;;;7.00;;
2021;SDS011;1015;49.756;6.994;2023-11-18T02:54:10;12.50;;;7.00;;
2021;SDS011;1015;49.756;6.994;2023-11-18T02:56:37;20.50;;;7.90;;
2021;SDS011;1015;49.756;6.994;2023-11-18T02:59:04;18.60;;;7.57;;
2021;SDS011;1015;49.756;6.994;2023-11-18T03:01:33;19.90;;;8.03;;
2021;SDS011;1015;49.756;6.994;2023-11-18T03:04:01;10.63;;;7.03;;
2021;SDS011;1015;49.756;6.994;2023-11-18T03:06:29;9.30;;;6.87;;
2021;SDS011;1015;49.756;6.994;2023-11-18T03:08:57;10.60;;;6.87;;
2021;SDS011;1015;49.756;6.994;2023-11-18T03:11:24;12.83;;;6.70;;
2021;SDS011;1015;49.756;6.994;2023-11-18T03:13:55;23.83;;;8.00;;
2021;SDS011;1015;49.756;6.994;2023-11-18T03:16:22;25.53;;;6.90;;
2021;SDS011;1015;49.756;6.994;2023-11-18T03:18:51;15.60;;;5.83;;
2021;SDS011;1015;49.756;6.994;2023-11-18T03:21:18;16.87;;;6.20;;
2021;SDS011;1015;49.756;6.994;2023-11-18T03:23:45;18.57;;;6.90;;
2021;SDS011;1015;49.756;6.994;2023-11-18T03:26:12;16.45;;;5.90;;
2021;SDS011;1015;49.756;6.994;2023-11-18T03:28:39;10.30;;;5.33;;
2021;SDS011;1015;49.756;6.994;2023-11-18T03:31:07;8.10;;;5.53;;
2021;SDS011;1015;49.756;6.994;2023-11-18T03:33:34;8.17;;;5.37;;
2021;SDS011;1015;49.756;6.994;2023-11-18T03:36:03;8.93;;;5.50;;
2021;SDS011;1015;49.756;6.994;2023-11-18T03:38:30;9.13;;;5.97;;
2021;SDS011;1015;49.756;6.994;2023-11-18T03:40:57;8.83;;;5.47;;
2021;SDS011;1015;49.756;6.994;2023-11-18T03:43:24;9.20;;;5.97;;
2021;SDS011;1015;49.756;6.994;2023-11-18T03:45:51;9.60;;;5.53;;
2021;SDS011;1015;49.756;6.994;2023-11-18T03:48:21;8.27;;;5.20;;
2021;SDS011;1015;49.756;6.994;2023-11-18T03:50:49;7.80;;;5.60;;
2021;SDS011;1015;49.756;6.994;2023-11-18T03:53:17;12.87;;;6.33;;
2021;SDS011;1015;49.756;6.994;2023-11-18T03:55:45;8.00;;;5.00;;
2021;SDS011;1015;49.756;6.994;2023-11-18T03:58:12;9.37;;;5.83;;
2021;SDS011;1015;49.756;6.994;2023-11-18T04:00:39;12.50;;;6.50;;
2021;SDS011;1015;49.756;6.994;2023-11-18T04:03:06;8.20;;;5.30;;
2021;SDS011;1015;49.756;6.994;2023-11-18T04:05:34;10.47;;;5.93;;
2021;SDS011;1015;49.756;6.994;2023-11-18T04:08:02;9.47;;;6.00;;
2021;SDS011;1015;49.756;6.994;2023-11-18T04:10:31;13.07;;;5.03;;
2021;SDS011;1015;49.756;6.994;2023-11-18T04:12:58;13.13;;;5.67;;
2021;SDS011;1015;49.756;6.994;2023-11-18T04:15:25;8.70;;;5.90;;
2021;SDS011;1015;49.756;6.994;2023-11-18T04:17:52;8.87;;;5.20;;
2021;SDS011;1015;49.756;6.994;2023-11-18T04:20:20;8.70;;;5.50;;
2021;SDS011;1015;49.756;6.994;2023-11-18T04:22:48;8.03;;;4.73;;
2021;SDS011;1015;49.756;6.994;2023-11-18T04:25:15;8.50;;;5.87;;
2021;SDS011;1015;49.756;6.994;2023-11-18T04:27:44;10.10;;;5.80;;
2021;SDS011;1015;49.756;6.994;2023-11-18T04:30:11;10.83;;;5.57;;
2021;SDS011;1015;49.756;6.994;2023-11-18T04:32:38;11.57;;;6.27;;
2021;SDS011;1015;49.756;6.994;2023-11-18T04:35:08;7.50;;;5.33;;
2021;SDS011;1015;49.756;6.994;2023-11-18T04:37:37;8.53;;;5.90;;
2021;SDS011;1015;49.756;6.994;2023-11-18T04:40:08;7.57;;;5.60;;
2021;SDS011;1015;49.756;6.994;2023-11-18T04:42:36;5.90;;;4.60;;
2021;SDS011;1015;49.756;6.994;2023-11-18T04:45:04;7.27;;;4.80;;
2021;SDS011;1015;49.756;6.994;2023-11-18T04:47:34;7.40;;;4.93;;
2021;SDS011;1015;49.756;6.994;2023-11-18T04:50:01;7.72;;;5.18;;
2021;SDS011;1015;49.756;6.994;2023-11-18T04:52:29;7.37;;;5.80;;
2021;SDS011;1015;49.756;6.994;2023-11-18T04:54:57;9.00;;;5.37;;
2021;SDS011;1015;49.756;6.994;2023-11-18T04:57:25;7.97;;;5.10;;
2021;SDS011;1015;49.756;6.994;2023-11-18T04:59:52;13.10;;;8.17;;
2021;SDS011;1015;49.756;6.994;2023-11-18T05:02:20;11.10;;;7.77;;
2021;SDS011;1015;49.756;6.994;2023-11-18T05:04:48;10.00;;;6.60;;
2021;SDS011;1015;49.756;6.994;2023-11-18T05:07:15;12.47;;;6.80;;
2021;SDS011;1015;49.756;6.994;2023-11-18T05:09:43;12.00;;;7.30;;
2021;SDS011;1015;49.756;6.994;2023-11-18T05:12:10;10.47;;;5.93;;
2021;SDS011;1015;49.756;6.994;2023-11-18T05:14:37;9.97;;;5.73;;
2021;SDS011;1015;49.756;6.994;2023-11-18T05:17:04;11.60;;;6.77;;
2021;SDS011;1015;49.756;6.994;2023-11-18T05:19:33;10.97;;;6.90;;
2021;SDS011;1015;49.756;6.994;2023-11-18T05:22:00;9.90;;;6.50;;
2021;SDS011;1015;49.756;6.994;2023-11-18T05:24:27;10.80;;;6.70;;
2021;SDS011;1015;49.756;6.994;2023-11-18T05:26:54;11.47;;;6.67;;
2021;SDS011;1015;49.756;6.994;2023-11-18T05:29:21;12.87;;;6.93;;
2021;SDS011;1015;49.756;6.994;2023-11-18T05:31:50;10.27;;;7.00;;
2021;SDS011;1015;49.756;6.994;2023-11-18T05:34:19;15.30;;;6.80;;
2021;SDS011;1015;49.756;6.994;2023-11-18T05:36:48;9.90;;;6.43;;
2021;SDS011;1015;49.756;6.994;2023-11-18T05:39:19;10.97;;;6.77;;
2021;SDS011;1015;49.756;6.994;2023-11-18T05:41:46;10.17;;;6.20;;
2021;SDS011;1015;49.756;6.994;2023-11-18T05:44:15;13.13;;;6.73;;
2021;SDS011;1015;49.756;6.994;2023-11-18T05:46:44;11.50;;;6.70;;
2021;SDS011;1015;49.756;6.994;2023-11-18T05:49:12;11.37;;;6.67;;
2021;SDS011;1015;49.756;6.994;2023-11-18T05:51:40;13.00;;;7.50;;
2021;SDS011;1015;49.756;6.994;2023-11-18T05:54:08;12.60;;;6.80;;
2021;SDS011;1015;49.756;6.994;2023-11-18T05:56:35;16.60;;;7.30;;
2021;SDS011;1015;49.756;6.994;2023-11-18T05:59:03;12.57;;;6.83;;
2021;SDS011;1015;49.756;6.994;2023-11-18T06:01:30;10.37;;;6.37;;
2021;SDS011;1015;49.756;6.994;2023-11-18T06:03:57;12.23;;;7.07;;
2021;SDS011;1015;49.756;6.994;2023-11-18T06:06:25;18.43;;;6.80;;
2021;SDS011;1015;49.756;6.994;2023-11-18T06:08:53;11.93;;;6.77;;
2021;SDS011;1015;49.756;6.994;2023-11-18T06:11:21;14.00;;;7.33;;
2021;SDS011;1015;49.756;6.994;2023-11-18T06:13:49;15.97;;;8.50;;
2021;SDS011;1015;49.756;6.994;2023-11-18T06:16:17;13.20;;;8.00;;
2021;SDS011;1015;49.756;6.994;2023-11-18T06:18:45;14.60;;;8.83;;
2021;SDS011;1015;49.756;6.994;2023-11-18T06:21:13;14.13;;;8.00;;
2021;SDS011;1015;49.756;6.994;2023-11-18T06:23:40;17.37;;;8.67;;
2021;SDS011;1015;49.756;6.994;2023-11-18T06:26:07;14.63;;;7.00;;
2021;SDS011;1015;49.756;6.994;2023-11-18T06:28:38;14.33;;;7.50;;
2021;SDS011;1015;49.756;6.994;2023-11-18T06:31:06;13.87;;;7.80;;
2021;SDS011;1015;49.756;6.994;2023-11-18T06:33:36;15.63;;;7.53;;
2021;SDS011;1015;49.756;6.994;2023-11-18T06:36:05;16.80;;;9.40;;
2021;SDS011;1015;49.756;6.994;2023-11-18T06:38:32;14.50;;;7.97;;
2021;SDS011;1015;49.756;6.994;2023-11-18T06:41:00;17.27;;;8.10;;
2021;SDS011;1015;49.756;6.994;2023-11-18T06:43:30;14.13;;;7.47;;
2021;SDS011;1015;49.756;6.994;2023-11-18T06:46:12;14.70;;;6.63;;
2021;SDS011;1015;49.756;6.994;2023-11-18T06:48:39;15.43;;;7.80;;
2021;SDS011;1015;49.756;6.994;2023-11-18T06:51:06;15.83;;;8.13;;
2021;SDS011;1015;49.756;6.994;2023-11-18T06:53:34;16.73;;;8.80;;
2021;SDS011;1015;49.756;6.994;2023-11-18T06:56:01;13.10;;;7.87;;
2021;SDS011;1015;49.756;6.994;2023-11-18T06:58:28;15.80;;;7.83;;
2021;SDS011;1015;49.756;6.994;2023-11-18T07:00:55;14.27;;;8.27;;
2021;SDS011;1015;49.756;6.994;2023-11-18T07:03:24;16.60;;;7.80;;
2021;SDS011;1015;49.756;6.994;2023-11-18T07:05:52;15.97;;;6.97;;
2021;SDS011;1015;49.756;6.994;2023-11-18T07:08:19;9.60;;;6.37;;
2021;SDS011;1015;49.756;6.994;2023-11-18T07:10:46;13.50;;;8.07;;
2021;SDS011;1015;49.756;6.994;2023-11-18T07:13:13;11.43;;;7.00;;
2021;SDS011;1015;49.756;6.994;2023-11-18T07:15:41;13.27;;;7.53;;
2021;SDS011;1015;49.756;6.994;2023-11-18T07:18:09;13.10;;;7.50;;
2021;SDS011;1015;49.756;6.994;2023-11-18T07:20:38;17.33;;;6.67;;
2021;SDS011;1015;49.756;6.994;2023-11-18T07:23:05;13.93;;;8.20;;
2021;SDS011;1015;49.756;6.994;2023-11-18T07:25:33;13.00;;;9.07;;
2021;SDS011;1015;49.756;6.994;2023-11-18T07:28:00;15.83;;;9.57;;
2021;SDS011;1015;49.756;6.994;2023-11-18T07:30:28;25.42;;;14.18;;
2021;SDS011;1015;49.756;6.994;2023-11-18T07:32:55;21.73;;;14.40;;
2021;SDS011;1015;49.756;6.994;2023-11-18T07:35:24;19.50;;;12.00;;
2021;SDS011;1015;49.756;6.994;2023-11-18T07:37:53;18.70;;;10.20;;
2021;SDS011;1015;49.756;6.994;2023-11-18T07:40:20;29.57;;;21.73;;
2021;SDS011;1015;49.756;6.994;2023-11-18T07:42:53;26.87;;;17.30;;
2021;SDS011;1015;49.756;6.994;2023-11-18T07:45:21;26.23;;;18.17;;
2021;SDS011;1015;49.756;6.994;2023-11-18T07:47:49;29.50;;;20.23;;
2021;SDS011;1015;49.756;6.994;2023-11-18T07:50:17;32.73;;;22.83;;
2021;SDS011;1015;49.756;6.994;2023-11-18T07:52:45;16.43;;;10.93;;
2021;SDS011;1015;49.756;6.994;2023-11-18T07:55:13;21.73;;;15.37;;
2021;SDS011;1015;49.756;6.994;2023-11-18T07:57:40;20.73;;;11.87;;
2021;SDS011;1015;49.756;6.994;2023-11-18T08:00:08;23.43;;;11.20;;
2021;SDS011;1015;49.756;6.994;2023-11-18T08:02:35;22.60;;;13.73;;
2021;SDS011;1015;49.756;6.994;2023-11-18T08:05:03;18.03;;;11.00;;
2021;SDS011;1015;49.756;6.994;2023-11-18T08:07:32;14.17;;;8.77;;
2021;SDS011;1015;49.756;6.994;2023-11-18T08:09:59;24.07;;;13.57;;
2021;SDS011;1015;49.756;6.994;2023-11-18T08:12:30;15.27;;;10.70;;
2021;SDS011;1015;49.756;6.994;2023-11-18T08:14:57;10.80;;;7.50;;
2021;SDS011;1015;49.756;6.994;2023-11-18T08:17:25;13.30;;;7.20;;
2021;SDS011;1015;49.756;6.994;2023-11-18T08:19:52;13.63;;;8.55;;
2021;SDS011;1015;49.756;6.994;2023-11-18T08:22:21;9.00;;;6.60;;
2021;SDS011;1015;49.756;6.994;2023-11-18T08:24:48;8.73;;;6.47;;
2021;SDS011;1015;49.756;6.994;2023-11-18T08:27:15;8.60;;;5.90;;
2021;SDS011;1015;49.756;6.994;2023-11-18T08:29:44;9.57;;;8.20;;
2021;SDS011;1015;49.756;6.994;2023-11-18T08:32:13;16.90;;;11.67;;
2021;SDS011;1015;49.756;6.994;2023-11-18T08:34:40;13.63;;;8.90;;
2021;SDS011;1015;49.756;6.994;2023-11-18T08:37:08;8.50;;;5.80;;
2021;SDS011;1015;49.756;6.994;2023-11-18T08:39:35;8.50;;;5.10;;
2021;SDS011;1015;49.756;6.994;2023-11-18T08:42:03;8.35;;;5.03;;
2021;SDS011;1015;49.756;6.994;2023-11-18T08:44:32;7.97;;;4.90;;
2021;SDS011;1015;49.756;6.994;2023-11-18T08:47:01;4.97;;;4.40;;
2021;SDS011;1015;49.756;6.994;2023-11-18T08:49:33;7.60;;;4.23;;
2021;SDS011;1015;49.756;6.994;2023-11-18T08:52:02;6.83;;;4.80;;
2021;SDS011;1015;49.756;6.994;2023-11-18T08:54:35;10.27;;;7.50;;
2021;SDS011;1015;49.756;6.994;2023-11-18T08:57:03;8.77;;;5.50;;
2021;SDS011;1015;49.756;6.994;2023-11-18T08:59:44;5.13;;;4.23;;
2021;SDS011;1015;49.756;6.994;2023-11-18T09:02:13;7.93;;;4.33;;
2021;SDS011;1015;49.756;6.994;2023-11-18T09:04:40;5.93;;;4.50;;
2021;SDS011;1015;49.756;6.994;2023-11-18T09:07:08;6.80;;;5.10;;
2021;SDS011;1015;49.756;6.994;2023-11-18T09:09:36;7.00;;;5.63;;
2021;SDS011;1015;49.756;6.994;2023-11-18T09:12:05;8.93;;;7.00;;
2021;SDS011;1015;49.756;6.994;2023-11-18T09:14:33;9.48;;;5.00;;
2021;SDS011;1015;49.756;6.994;2023-11-18T09:17:00;7.17;;;4.60;;
2021;SDS011;1015;49.756;6.994;2023-11-18T09:19:29;5.93;;;4.00;;
2021;SDS011;1015;49.756;6.994;2023-11-18T09:21:56;6.77;;;5.10;;
2021;SDS011;1015;49.756;6.994;2023-11-18T09:24:24;8.57;;;6.97;;
2021;SDS011;1015;49.756;6.994;2023-11-18T09:26:51;9.33;;;7.17;;
2021;SDS011;1015;49.756;6.994;2023-11-18T09:29:20;6.63;;;5.20;;
2021;SDS011;1015;49.756;6.994;2023-11-18T09:31:49;5.77;;;3.97;;
2021;SDS011;1015;49.756;6.994;2023-11-18T09:34:19;7.77;;;5.70;;
2021;SDS011;1015;49.756;6.994;2023-11-18T09:36:53;7.67;;;4.90;;
2021;SDS011;1015;49.756;6.994;2023-11-18T09:39:20;8.60;;;5.67;;
2021;SDS011;1015;49.756;6.994;2023-11-18T09:42:03;8.77;;;5.50;;
2021;SDS011;1015;49.756;6.994;2023-11-18T09:44:33;7.97;;;5.50;;
2021;SDS011;1015;49.756;6.994;2023-11-18T09:47:03;6.67;;;5.60;;
2021;SDS011;1015;49.756;6.994;2023-11-18T09:49:34;9.40;;;6.20;;
2021;SDS011;1015;49.756;6.994;2023-11-18T09:52:08;9.30;;;5.20;;
2021;SDS011;1015;49.756;6.994;2023-11-18T09:54:39;14.07;;;8.10;;
2021;SDS011;1015;49.756;6.994;2023-11-18T09:57:16;9.40;;;7.73;;
2021;SDS011;1015;49.756;6.994;2023-11-18T09:59:49;10.13;;;6.40;;
2021;SDS011;1015;49.756;6.994;2023-11-18T10:02:19;8.13;;;6.07;;
2021;SDS011;1015;49.756;6.994;2023-11-18T10:04:48;10.20;;;6.63;;
2021;SDS011;1015;49.756;6.994;2023-11-18T10:07:23;12.60;;;6.77;;
2021;SDS011;1015;49.756;6.994;2023-11-18T10:09:52;8.93;;;6.00;;
2021;SDS011;1015;49.756;6.994;2023-11-18T10:12:22;12.87;;;7.13;;
2021;SDS011;1015;49.756;6.994;2023-11-18T10:14:52;7.63;;;5.90;;
2021;SDS011;1015;49.756;6.994;2023-11-18T10:17:18;10.47;;;7.50;;
2021;SDS011;1015;49.756;6.994;2023-11-18T10:22:51;9.67;;;7.23;;
2021;SDS011;1015;49.756;6.994;2023-11-18T10:25:32;11.80;;;8.37;;
2021;SDS011;1015;49.756;6.994;2023-11-18T10:28:00;12.70;;;7.53;;
2021;SDS011;1015;49.756;6.994;2023-11-18T10:30:28;12.07;;;8.07;;
2021;SDS011;1015;49.756;6.994;2023-11-18T10:32:57;12.77;;;7.60;;
2021;SDS011;1015;49.756;6.994;2023-11-18T10:35:31;11.93;;;8.00;;
2021;SDS011;1015;49.756;6.994;2023-11-18T10:38:02;13.40;;;8.90;;
2021;SDS011;1015;49.756;6.994;2023-11-18T10:40:31;13.97;;;8.77;;
2021;SDS011;1015;49.756;6.994;2023-11-18T10:43:01;12.83;;;9.70;;
2021;SDS011;1015;49.756;6.994;2023-11-18T10:45:34;18.53;;;9.90;;
2021;SDS011;1015;49.756;6.994;2023-11-18T10:48:04;14.30;;;9.80;;
2021;SDS011;1015;49.756;6.994;2023-11-18T10:50:32;14.60;;;9.13;;
2021;SDS011;1015;49.756;6.994;2023-11-18T10:52:59;12.73;;;8.13;;
2021;SDS011;1015;49.756;6.994;2023-11-18T10:55:35;16.07;;;10.73;;
2021;SDS011;1015;49.756;6.994;2023-11-18T10:58:03;11.77;;;8.63;;
2021;SDS011;1015;49.756;6.994;2023-11-18T11:00:43;15.50;;;8.50;;
2021;SDS011;1015;49.756;6.994;2023-11-18T11:03:12;13.27;;;8.20;;
2021;SDS011;1015;49.756;6.994;2023-11-18T11:05:39;15.43;;;9.33;;
2021;SDS011;1015;49.756;6.994;2023-11-18T11:08:09;14.97;;;10.10;;
2021;SDS011;1015;49.756;6.994;2023-11-18T11:10:39;14.63;;;9.40;;
2021;SDS011;1015;49.756;6.994;2023-11-18T11:13:08;11.53;;;8.87;;
2021;SDS011;1015;49.756;6.994;2023-11-18T11:15:39;13.33;;;9.60;;
2021;SDS011;1015;49.756;6.994;2023-11-18T11:18:11;13.73;;;9.40;;
2021;SDS011;1015;49.756;6.994;2023-11-18T11:20:41;12.57;;;8.50;;
2021;SDS011;1015;49.756;6.994;2023-11-18T11:23:12;13.70;;;9.03;;
2021;SDS011;1015;49.756;6.994;2023-11-18T11:25:50;14.30;;;9.90;;
2021;SDS011;1015;49.756;6.994;2023-11-18T11:28:19;13.23;;;8.90;;
2021;SDS011;1015;49.756;6.994;2023-11-18T11:30:50;16.47;;;9.53;;
2021;SDS011;1015;49.756;6.994;2023-11-18T11:33:21;15.93;;;8.43;;
2021;SDS011;1015;49.756;6.994;2023-11-18T11:35:53;10.80;;;7.87;;
2021;SDS011;1015;49.756;6.994;2023-11-18T11:38:22;13.27;;;9.53;;
2021;SDS011;1015;49.756;6.994;2023-11-18T11:40:53;17.80;;;8.70;;
2021;SDS011;1015;49.756;6.994;2023-11-18T11:43:21;12.90;;;8.90;;
2021;SDS011;1015;49.756;6.994;2023-11-18T11:45:49;12.07;;;8.17;;
2021;SDS011;1015;49.756;6.994;2023-11-18T11:48:20;13.00;;;9.20;;
2021;SDS011;1015;49.756;6.994;2023-11-18T11:51:03;10.40;;;7.50;;
2021;SDS011;1015;49.756;6.994;2023-11-18T11:53:39;11.60;;;7.50;;
2021;SDS011;1015;49.756;6.994;2023-11-18T11:56:11;9.90;;;7.10;;
2021;SDS011;1015;49.756;6.994;2023-11-18T11:58:46;9.73;;;7.40;;
2021;SDS011;1015;49.756;6.994;2023-11-18T12:01:24;9.93;;;7.80;;
2021;SDS011;1015;49.756;6.994;2023-11-18T12:03:57;10.20;;;7.20;;
2021;SDS011;1015;49.756;6.994;2023-11-18T12:06:31;11.13;;;7.27;;
2021;SDS011;1015;49.756;6.994;2023-11-18T12:09:00;12.90;;;7.47;;
2021;SDS011;1015;49.756;6.994;2023-11-18T12:11:33;11.33;;;7.17;;
2021;SDS011;1015;49.756;6.994;2023-11-18T12:14:02;15.40;;;8.70;;
2021;SDS011;1015;49.756;6.994;2023-11-18T12:16:58;11.75;;;8.13;;
2021;SDS011;1015;49.756;6.994;2023-11-18T12:19:32;11.37;;;8.93;;
2021;SDS011;1015;49.756;6.994;2023-11-18T12:22:10;11.60;;;9.30;;
2021;SDS011;1015;49.756;6.994;2023-11-18T12:24:42;18.77;;;12.13;;
2021;SDS011;1015;49.756;6.994;2023-11-18T12:27:13;23.03;;;16.33;;
2021;SDS011;1015;49.756;6.994;2023-11-18T12:29:43;15.70;;;12.17;;
2021;SDS011;1015;49.756;6.994;2023-11-18T12:32:10;16.83;;;11.20;;
2021;SDS011;1015;49.756;6.994;2023-11-18T12:34:51;12.60;;;9.73;;
2021;SDS011;1015;49.756;6.994;2023-11-18T12:37:46;14.30;;;11.60;;
2021;SDS011;1015;49.756;6.994;2023-11-18T12:40:37;14.40;;;10.20;;
2021;SDS011;1015;49.756;6.994;2023-11-18T12:43:13;10.43;;;8.00;;
2021;SDS011;1015;49.756;6.994;2023-11-18T12:45:57;10.80;;;8.18;;
2021;SDS011;1015;49.756;6.994;2023-11-18T12:48:31;14.10;;;7.90;;
2021;SDS011;1015;49.756;6.994;2023-11-18T12:51:01;13.83;;;8.20;;
2021;SDS011;1015;49.756;6.994;2023-11-18T12:53:35;12.30;;;7.83;;
2021;SDS011;1015;49.756;6.994;2023-11-18T12:56:02;9.60;;;8.23;;
2021;SDS011;1015;49.756;6.994;2023-11-18T12:58:31;15.40;;;12.27;;
2021;SDS011;1015;49.756;6.994;2023-11-18T13:00:59;11.90;;;8.00;;
2021;SDS011;1015;49.756;6.994;2023-11-18T13:03:28;12.73;;;8.03;;
2021;SDS011;1015;49.756;6.994;2023-11-18T13:05:55;11.03;;;8.80;;
2021;SDS011;1015;49.756;6.994;2023-11-18T13:08:22;10.80;;;9.00;;
2021;SDS011;1015;49.756;6.994;2023-11-18T13:10:49;12.33;;;8.70;;
2021;SDS011;1015;49.756;6.994;2023-11-18T13:13:17;16.20;;;8.70;;
2021;SDS011;1015;49.756;6.994;2023-11-18T13:15:46;9.27;;;7.90;;
2021;SDS011;1015;49.756;6.994;2023-11-18T13:18:15;9.50;;;8.00;;
2021;SDS011;1015;49.756;6.994;2023-11-18T13:20:53;9.57;;;8.47;;
2021;SDS011;1015;49.756;6.994;2023-11-18T13:23:20;10.90;;;8.20;;
2021;SDS011;1015;49.756;6.994;2023-11-18T13:25:47;9.07;;;7.70;;
2021;SDS011;1015;49.756;6.994;2023-11-18T13:28:15;10.53;;;7.40;;
2021;SDS011;1015;49.756;6.994;2023-11-18T13:30:42;9.40;;;6.97;;
2021;SDS011;1015;49.756;6.994;2023-11-18T13:33:12;9.33;;;7.30;;
2021;SDS011;1015;49.756;6.994;2023-11-18T13:35:39;9.30;;;8.30;;
2021;SDS011;1015;49.756;6.994;2023-11-18T13:38:11;10.60;;;8.73;;
2021;SDS011;1015;49.756;6.994;2023-11-18T13:40:43;9.50;;;7.57;;
2021;SDS011;1015;49.756;6.994;2023-11-18T13:43:10;9.13;;;7.40;;
2021;SDS011;1015;49.756;6.994;2023-11-18T13:45:37;9.70;;;7.83;;
2021;SDS011;1015;49.756;6.994;2023-11-18T13:48:04;9.07;;;7.60;;
2021;SDS011;1015;49.756;6.994;2023-11-18T13:50:35;11.40;;;8.73;;
2021;SDS011;1015;49.756;6.994;2023-11-18T13:53:03;9.13;;;8.20;;
2021;SDS011;1015;49.756;6.994;2023-11-18T13:55:31;10.15;;;7.90;;
2021;SDS011;1015;49.756;6.994;2023-11-18T13:57:58;11.03;;;7.87;;
2021;SDS011;1015;49.756;6.994;2023-11-18T14:00:26;10.00;;;7.63;;
2021;SDS011;1015;49.756;6.994;2023-11-18T14:02:54;11.20;;;7.17;;
2021;SDS011;1015;49.756;6.994;2023-11-18T14:05:22;10.63;;;7.00;;
2021;SDS011;1015;49.756;6.994;2023-11-18T14:07:52;7.90;;;6.60;;
2021;SDS011;1015;49.756;6.994;2023-11-18T14:10:20;8.90;;;6.40;;
2021;SDS011;1015;49.756;6.994;2023-11-18T14:12:59;9.80;;;6.53;;
2021;SDS011;1015;49.756;6.994;2023-11-18T14:15:26;9.00;;;6.30;;
2021;SDS011;1015;49.756;6.994;2023-11-18T14:17:53;6.43;;;5.73;;
2021;SDS011;1015;49.756;6.994;2023-11-18T14:20:20;8.37;;;5.47;;
2021;SDS011;1015;49.756;6.994;2023-11-18T14:22:48;6.30;;;5.40;;
2021;SDS011;1015;49.756;6.994;2023-11-18T14:25:17;7.23;;;5.00;;
2021;SDS011;1015;49.756;6.994;2023-11-18T14:27:44;6.30;;;5.67;;
2021;SDS011;1015;49.756;6.994;2023-11-18T14:30:13;5.37;;;4.83;;
2021;SDS011;1015;49.756;6.994;2023-11-18T14:32:41;6.37;;;5.00;;
2021;SDS011;1015;49.756;6.994;2023-11-18T14:35:08;8.20;;;5.10;;
2021;SDS011;1015;49.756;6.994;2023-11-18T14:37:37;7.00;;;5.53;;
2021;SDS011;1015;49.756;6.994;2023-11-18T14:40:07;9.20;;;7.37;;
2021;SDS011;1015;49.756;6.994;2023-11-18T14:42:36;8.63;;;5.90;;
2021;SDS011;1015;49.756;6.994;2023-11-18T14:45:03;6.50;;;5.23;;
2021;SDS011;1015;49.756;6.994;2023-11-18T14:47:33;5.83;;;4.90;;
2021;SDS011;1015;49.756;6.994;2023-11-18T14:50:00;6.60;;;5.20;;
2021;SDS011;1015;49.756;6.994;2023-11-18T14:52:30;7.33;;;5.33;;
2021;SDS011;1015;49.756;6.994;2023-11-18T14:54:57;5.40;;;4.70;;
2021;SDS011;1015;49.756;6.994;2023-11-18T14:57:25;6.53;;;4.90;;
2021;SDS011;1015;49.756;6.994;2023-11-18T14:59:55;6.07;;;4.90;;
2021;SDS011;1015;49.756;6.994;2023-11-18T15:02:23;5.43;;;4.93;;
2021;SDS011;1015;49.756;6.994;2023-11-18T15:04:52;5.17;;;4.67;;
2021;SDS011;1015;49.756;6.994;2023-11-18T15:07:19;5.23;;;4.33;;
2021;SDS011;1015;49.756;6.994;2023-11-18T15:09:46;6.73;;;4.40;;
2021;SDS011;1015;49.756;6.994;2023-11-18T15:12:13;6.20;;;4.63;;
2021;SDS011;1015;49.756;6.994;2023-11-18T15:14:41;4.97;;;4.47;;
2021;SDS011;1015;49.756;6.994;2023-11-18T15:17:09;5.67;;;4.73;;
2021;SDS011;1015;49.756;6.994;2023-11-18T15:19:38;5.13;;;4.23;;